Time;durP1;ratioP1;P1;durP2;ratioP2;P2;SDS_P1;SDS_P2;PMS_P1;PMS_P2;Temp;Humidity;BMP_temperature;BMP_pressure;BME280_temperature;BME280_humidity;BME280_pressure;Samples;Min_cycle;Max_cycle;Signal;HPM_P1;HPM_P2
2024/03/20 00:44:15;;;;;;;5.00;2.10;;;10.80;99.90;;;;;;5078942;23;20484;-95
2024/03/20 00:47:07;;;;;;;2.88;1.70;;;10.60;99.90;;;;;;5062990;23;20162;-95
2024/03/20 00:50:28;;;;;;;6.80;2.05;;;10.70;99.90;;;;;;4964278;23;20153;-94
2024/03/20 00:53:36;;;;;;;;;;;;;;;;;;;;;
2024/03/20 00:56:39;;;;;;;6.43;2.35;;;10.70;99.90;;;;;;4988295;23;20191;-94
2024/03/20 00:59:35;;;;;;;10.88;1.88;;;10.60;99.90;;;;;;5050972;23;20192;-95
2024/03/20 01:02:36;;;;;;;7.30;2.33;;;10.60;99.90;;;;;;5011791;23;20166;-95
2024/03/20 01:05:46;;;;;;;6.38;2.17;;;10.60;99.90;;;;;;5007532;23;20171;-95
2024/03/20 01:08:24;;;;;;;7.53;2.00;;;10.70;99.90;;;;;;5011055;23;20516;-94
2024/03/20 01:10:57;;;;;;;9.90;1.88;;;10.70;99.90;;;;;;4984349;23;20186;-94
2024/03/20 01:13:36;;;;;;;14.38;2.83;;;10.90;99.90;;;;;;5006843;23;20174;-96
2024/03/20 01:16:10;;;;;;;9.35;3.08;;;11.10;99.90;;;;;;4997841;23;20199;-96
2024/03/20 01:18:52;;;;;;;13.52;2.55;;;11.10;99.90;;;;;;5014124;23;20144;-95
2024/03/20 01:21:50;;;;;;;8.02;2.47;;;11.10;99.90;;;;;;5016133;23;20215;-94
2024/03/20 01:24:36;;;;;;;8.38;2.40;;;11.10;99.90;;;;;;5011522;23;20151;-93
2024/03/20 01:28:07;;;;;;;8.32;2.60;;;11.00;99.90;;;;;;5035232;23;20181;-95
2024/03/20 01:30:24;;;;;;;7.30;2.67;;;10.90;99.90;;;;;;5019311;23;20175;-93
2024/03/20 01:33:12;;;;;;;;;;;;;;;;;;;;;
2024/03/20 01:37:39;;;;;;;;;;;;;;;;;;;;;
2024/03/20 01:40:21;;;;;;;7.82;3.22;;;10.50;99.90;;;;;;5058296;23;20180;-96
2024/03/20 01:42:47;;;;;;;;;;;;;;;;;;;;;
2024/03/20 01:45:41;;;;;;;;;;;;;;;;;;;;;
2024/03/20 01:48:19;;;;;;;10.90;3.22;;;10.40;99.90;;;;;;5057352;23;20200;-93
2024/03/20 01:50:46;;;;;;;11.75;2.75;;;10.50;99.90;;;;;;5056360;23;20225;-93
2024/03/20 01:53:10;;;;;;;6.15;2.28;;;10.60;99.90;;;;;;5058148;23;20238;-92
2024/03/20 01:55:53;;;;;;;7.40;2.28;;;10.60;99.90;;;;;;5056606;23;20276;-94
2024/03/20 01:58:33;;;;;;;4.18;2.03;;;10.80;99.90;;;;;;4996776;23;20159;-95
2024/03/20 02:01:12;;;;;;;8.65;2.22;;;11.00;99.90;;;;;;5083862;23;20181;-96
2024/03/20 02:03:37;;;;;;;6.38;2.15;;;11.10;99.90;;;;;;5033004;23;20139;-95
2024/03/20 02:06:21;;;;;;;5.75;2.08;;;11.30;99.90;;;;;;5042215;23;20165;-94
2024/03/20 02:08:45;;;;;;;8.35;1.75;;;11.60;99.90;;;;;;5084553;23;20160;-94
2024/03/20 02:11:12;;;;;;;4.40;2.65;;;12.00;99.90;;;;;;5059607;23;20174;-93
2024/03/20 02:16:10;;;;;;;;;;;;;;;;;;;;;
2024/03/20 02:19:07;;;;;;;5.88;2.08;;;12.50;99.90;;;;;;5087346;23;20215;-93
2024/03/20 02:25:41;;;;;;;14.30;2.72;;;12.30;99.90;;;;;;5080624;23;20164;-95
2024/03/20 02:28:09;;;;;;;11.73;2.28;;;12.20;99.90;;;;;;5057670;23;20158;-94
2024/03/20 02:30:48;;;;;;;6.80;3.00;;;12.10;99.90;;;;;;5036964;23;20206;-93
2024/03/20 02:33:25;;;;;;;13.90;2.65;;;12.00;99.90;;;;;;5009042;23;20156;-95
2024/03/20 02:35:30;;;;;;;6.25;2.03;;;11.90;99.90;;;;;;4987530;23;20192;-93
2024/03/20 02:38:03;;;;;;;6.15;2.22;;;11.50;99.90;;;;;;4993016;23;20156;-92
2024/03/20 02:40:49;;;;;;;4.35;1.65;;;11.50;99.90;;;;;;5011904;23;20163;-94
2024/03/20 02:43:24;;;;;;;8.23;2.40;;;11.50;99.90;;;;;;5012033;23;20192;-94
2024/03/20 02:45:54;;;;;;;14.35;3.30;;;11.10;99.90;;;;;;4985407;23;20164;-92
2024/03/20 02:48:18;;;;;;;10.95;2.95;;;10.50;99.90;;;;;;4965003;24;20158;-94
2024/03/20 02:53:23;;;;;;;6.65;2.47;;;9.60;99.90;;;;;;4990860;23;20156;-93
2024/03/20 02:55:59;;;;;;;5.43;2.40;;;9.30;99.90;;;;;;4942351;23;20207;-93
2024/03/20 02:58:27;;;;;;;9.02;2.60;;;9.10;99.90;;;;;;4934941;24;20160;-94
2024/03/20 03:00:36;;;;;;;10.05;2.15;;;8.90;99.90;;;;;;4988596;23;20164;-93
2024/03/20 03:02:58;;;;;;;4.97;2.05;;;8.70;99.90;;;;;;4984695;23;20151;-93
2024/03/20 03:05:49;;;;;;;10.48;3.13;;;8.70;99.90;;;;;;4949504;23;20145;-94
2024/03/20 03:07:59;;;;;;;6.25;2.05;;;8.70;99.90;;;;;;4989983;23;20164;-94
2024/03/20 03:10:17;;;;;;;7.75;3.28;;;8.70;99.90;;;;;;5002821;23;20159;-93
2024/03/20 03:12:38;;;;;;;7.70;2.63;;;8.60;99.90;;;;;;4990707;23;20184;-95
2024/03/20 03:14:53;;;;;;;9.57;2.72;;;8.70;99.90;;;;;;5011905;23;20172;-93
2024/03/20 03:17:21;;;;;;;9.18;2.97;;;8.80;99.90;;;;;;4990908;23;20499;-95
2024/03/20 03:23:10;;;;;;;11.77;3.60;;;8.80;99.90;;;;;;4970947;23;20177;-94
2024/03/20 03:26:27;;;;;;;10.75;2.63;;;8.90;99.90;;;;;;5008417;23;20144;-94
2024/03/20 03:28:43;;;;;;;11.90;2.88;;;9.00;99.90;;;;;;5033216;23;20192;-93
2024/03/20 03:31:26;;;;;;;10.60;3.03;;;9.00;99.90;;;;;;5038623;23;20174;-95
2024/03/20 03:37:57;;;;;;;8.88;2.83;;;9.10;99.90;;;;;;5040150;23;20178;-93
2024/03/20 03:40:45;;;;;;;7.90;3.08;;;9.20;99.90;;;;;;5046484;23;20240;-95
2024/03/20 03:43:38;;;;;;;7.05;2.83;;;9.30;99.90;;;;;;5012054;23;20191;-95
2024/03/20 03:45:52;;;;;;;5.75;2.72;;;9.50;99.90;;;;;;5034410;23;20170;-95
2024/03/20 03:48:43;;;;;;;8.60;3.10;;;10.10;99.90;;;;;;5010762;23;20685;-94
2024/03/20 03:51:37;;;;;;;8.25;2.35;;;10.30;99.90;;;;;;5061618;23;20165;-94
2024/03/20 03:54:13;;;;;;;8.20;2.90;;;10.90;99.90;;;;;;5013605;23;20237;-95
2024/03/20 03:59:22;;;;;;;8.05;2.85;;;10.80;99.90;;;;;;5083900;23;20189;-94
2024/03/20 04:02:05;;;;;;;11.45;2.95;;;10.30;99.90;;;;;;5056646;23;20162;-94
2024/03/20 04:04:39;;;;;;;6.13;2.10;;;10.00;99.90;;;;;;5057476;23;20672;-95
2024/03/20 04:11:54;;;;;;;8.10;3.15;;;9.70;99.90;;;;;;5076334;23;20205;-95
2024/03/20 04:14:10;;;;;;;6.38;2.67;;;9.60;99.90;;;;;;5057683;23;20249;-96
2024/03/20 04:24:47;;;;;;;6.63;2.75;;;9.80;99.90;;;;;;5066254;23;20192;-94
2024/03/20 04:27:44;;;;;;;13.68;2.53;;;10.00;99.90;;;;;;5060442;23;20190;-94
2024/03/20 04:30:28;;;;;;;8.77;4.30;;;10.00;99.90;;;;;;5056768;23;20174;-95
2024/03/20 04:33:13;;;;;;;14.35;3.80;;;10.50;99.90;;;;;;5017496;23;20158;-95
2024/03/20 04:37:53;;;;;;;7.20;3.42;;;10.00;99.90;;;;;;5063510;23;20192;-94
2024/03/20 04:42:52;;;;;;;9.40;3.58;;;9.60;99.90;;;;;;5077686;23;20200;-95
2024/03/20 04:45:26;;;;;;;6.45;3.13;;;9.60;99.90;;;;;;5058514;23;20700;-94
2024/03/20 04:48:19;;;;;;;12.75;2.88;;;9.70;99.90;;;;;;5059964;23;20166;-93
2024/03/20 04:51:19;;;;;;;8.55;2.90;;;10.00;99.90;;;;;;5035011;23;20171;-95
2024/03/20 04:54:14;;;;;;;15.88;3.55;;;10.40;99.90;;;;;;5042995;23;20519;-96
2024/03/20 04:56:57;;;;;;;8.98;3.70;;;11.00;99.90;;;;;;5062300;23;20209;-94
2024/03/20 04:59:23;;;;;;;13.05;3.65;;;11.00;99.90;;;;;;5080415;23;20533;-93
2024/03/20 05:02:04;;;;;;;8.82;3.20;;;10.80;99.90;;;;;;4986474;23;20163;-94
2024/03/20 05:04:33;;;;;;;10.95;3.67;;;10.60;99.90;;;;;;5034616;23;20166;-93
2024/03/20 05:07:22;;;;;;;10.07;3.58;;;10.70;99.90;;;;;;5062371;23;20593;-93
2024/03/20 05:09:58;;;;;;;13.43;3.30;;;10.40;99.90;;;;;;5048621;23;20257;-94
2024/03/20 05:12:31;;;;;;;12.85;3.85;;;10.40;99.90;;;;;;5043609;23;20210;-93
2024/03/20 05:15:48;;;;;;;8.15;3.22;;;10.40;99.90;;;;;;5032079;23;20197;-93
2024/03/20 05:18:55;;;;;;;14.73;3.63;;;10.20;99.90;;;;;;5073180;23;20181;-95
2024/03/20 05:22:30;;;;;;;10.07;3.75;;;10.40;99.90;;;;;;5057660;23;20197;-91
2024/03/20 05:25:20;;;;;;;14.45;3.67;;;10.20;99.90;;;;;;5032527;23;20162;-95
2024/03/20 05:28:29;;;;;;;6.32;3.30;;;9.80;99.90;;;;;;5056395;23;20166;-95
2024/03/20 05:31:57;;;;;;;16.02;3.75;;;9.70;99.90;;;;;;5059555;23;20186;-94
2024/03/20 05:35:17;;;;;;;13.48;4.60;;;9.60;99.90;;;;;;5056871;23;20243;-93
2024/03/20 05:37:52;;;;;;;9.63;3.42;;;9.50;99.90;;;;;;5036309;23;20159;-93
2024/03/20 05:41:06;;;;;;;12.18;4.22;;;9.30;99.90;;;;;;5032614;23;20178;-96
2024/03/20 05:43:53;;;;;;;10.98;4.70;;;9.20;99.90;;;;;;5059957;23;20172;-94
2024/03/20 05:46:38;;;;;;;14.32;5.28;;;9.40;99.90;;;;;;5060244;23;20149;-95
2024/03/20 05:49:31;;;;;;;11.27;4.18;;;9.50;99.90;;;;;;5032988;23;20207;-95
2024/03/20 05:52:26;;;;;;;11.68;5.03;;;9.70;99.90;;;;;;5036973;23;20169;-95
2024/03/20 05:55:08;;;;;;;22.35;5.93;;;10.00;99.90;;;;;;5041325;23;20178;-96
2024/03/20 05:57:52;;;;;;;17.38;5.47;;;10.30;99.90;;;;;;5029652;23;20178;-96
2024/03/20 06:03:38;;;;;;;12.43;4.90;;;10.50;99.90;;;;;;5034954;23;20168;-95
2024/03/20 06:06:22;;;;;;;10.02;4.75;;;10.60;99.90;;;;;;5060672;23;20169;-95
2024/03/20 06:15:08;;;;;;;;;;;;;;;;;;;;;
2024/03/20 06:17:32;;;;;;;11.30;4.63;;;10.90;99.90;;;;;;5029645;23;20194;-95
2024/03/20 06:29:56;;;;;;;10.40;4.00;;;10.90;99.90;;;;;;4999144;23;20163;-95
2024/03/20 06:39:41;;;;;;;;;;;;;;;;;;;;;
2024/03/20 06:42:42;;;;;;;16.67;5.78;;;10.80;99.90;;;;;;5043890;23;20233;-95
2024/03/20 06:45:52;;;;;;;;;;;;;;;;;;;;;
2024/03/20 06:48:58;;;;;;;13.30;6.82;;;11.10;99.90;;;;;;5054036;23;20289;-95
2024/03/20 06:54:26;;;;;;;11.27;5.25;;;11.50;99.90;;;;;;5034641;23;20162;-96
2024/03/20 06:57:14;;;;;;;;;;;;;;;;;;;;;
2024/03/20 06:59:45;;;;;;;13.45;5.72;;;11.90;99.90;;;;;;5053070;23;20201;-96
2024/03/20 07:15:40;;;;;;;;;;;;;;;;;;;;;
2024/03/20 07:18:21;;;;;;;6.55;3.47;;;13.70;99.90;;;;;;5052081;23;20203;-96
2024/03/20 07:21:09;;;;;;;;;;;;;;;;;;;;;
2024/03/20 07:23:57;;;;;;;;;;;;;;;;;;;;;
2024/03/20 07:27:00;;;;;;;5.28;2.70;;;14.50;99.90;;;;;;5053122;23;20158;-96
2024/03/20 07:30:10;;;;;;;;;;;;;;;;;;;;;
2024/03/20 07:39:46;;;;;;;;;;;;;;;;;;;;;
2024/03/20 07:42:42;;;;;;;;;;;;;;;;;;;;;
2024/03/20 07:48:44;;;;;;;;;;;;;;;;;;;;;
2024/03/20 08:01:26;;;;;;;;;;;;;;;;;;;;;
2024/03/20 08:04:41;;;;;;;;;;;;;;;;;;;;;
2024/03/20 08:10:46;;;;;;;;;;;;;;;;;;;;;
2024/03/20 08:13:33;;;;;;;11.68;4.20;;;17.00;99.90;;;;;;4963232;23;20240;-95
2024/03/20 08:20:10;;;;;;;;;;;;;;;;;;;;;
2024/03/20 08:41:20;;;;;;;;;;;;;;;;;;;;;
2024/03/20 08:45:00;;;;;;;9.27;4.72;;;18.70;99.90;;;;;;4759988;24;20185;-96
2024/03/20 09:09:06;;;;;;;10.90;4.30;;;19.30;99.90;;;;;;4080178;29;20204;-95
2024/03/20 09:12:14;;;;;;;;;;;;;;;;;;;;;
2024/03/20 09:18:45;;;;;;;6.78;4.10;;;17.30;99.90;;;;;;4098720;28;20187;-96
2024/03/20 09:21:37;;;;;;;6.47;4.15;;;16.90;99.90;;;;;;4107364;28;20258;-96
2024/03/20 09:24:28;;;;;;;7.90;3.85;;;17.30;99.90;;;;;;4098855;28;20219;-96
2024/03/20 10:29:53;;;;;;;8.80;2.90;;;18.40;99.90;;;;;;5110656;23;20190;31
